createdAt,value
2022-07-28T00:00:20.327Z,67.68
2022-07-28T00:03:05.836Z,67.85
2022-07-28T00:05:34.650Z,67.99
2022-07-28T00:08:03.577Z,67.12
2022-07-28T00:10:32.588Z,66.48
2022-07-28T00:13:01.272Z,66.46
2022-07-28T00:15:30.080Z,66.69
2022-07-28T00:17:58.689Z,67.19
2022-07-28T00:20:28.316Z,66.81
2022-07-28T00:22:57.802Z,66.77
2022-07-28T00:25:26.621Z,67.45
2022-07-28T00:27:55.285Z,67.35
2022-07-28T00:30:24.058Z,67.37
2022-07-28T00:32:52.993Z,67.44
2022-07-28T00:35:30.507Z,68.03
2022-07-28T00:38:01.318Z,67.85
2022-07-28T00:40:49.488Z,67.96
2022-07-28T00:43:18.151Z,68.44
2022-07-28T00:45:47.761Z,68.80
2022-07-28T00:48:16.568Z,68.87
2022-07-28T00:50:45.297Z,69.11
2022-07-28T00:53:14.089Z,68.86
2022-07-28T00:56:05.820Z,68.80
2022-07-28T00:58:33.621Z,68.74
2022-07-28T01:01:03.903Z,68.47
2022-07-28T01:03:33.526Z,69.18
2022-07-28T01:06:42.751Z,68.90
2022-07-28T01:09:38.940Z,68.78
2022-07-28T01:12:57.833Z,68.54
2022-07-28T01:15:32.565Z,69.44
2022-07-28T01:18:12.268Z,70.63
2022-07-28T01:20:50.659Z,70.58
2022-07-28T01:23:32.986Z,70.20
2022-07-28T01:26:43.876Z,70.38
2022-07-28T01:29:35.566Z,69.67
2022-07-28T01:32:07.085Z,70.21
2022-07-28T01:34:49.832Z,70.19
2022-07-28T01:37:22.538Z,70.57
2022-07-28T01:39:54.600Z,70.71
2022-07-28T01:42:28.660Z,71.03
2022-07-28T01:44:58.022Z,70.63
2022-07-28T01:47:29.145Z,70.11
2022-07-28T01:50:00.887Z,69.90
2022-07-28T01:52:31.096Z,70.12
2022-07-28T01:55:02.267Z,70.91
2022-07-28T01:57:33.278Z,70.90
2022-07-28T02:00:01.866Z,71.10
2022-07-28T02:02:44.078Z,70.49
2022-07-28T02:05:16.506Z,71.29
2022-07-28T02:07:48.712Z,71.87
2022-07-28T02:10:18.476Z,71.99
2022-07-28T02:12:50.211Z,72.04
2022-07-28T02:15:19.827Z,72.05
2022-07-28T02:17:49.189Z,72.75
2022-07-28T02:20:19.356Z,72.23
2022-07-28T02:22:51.838Z,72.19
2022-07-28T02:25:21.893Z,71.97
2022-07-28T02:28:00.789Z,72.09
2022-07-28T02:30:45.836Z,71.75
2022-07-28T02:33:58.835Z,71.99
2022-07-28T02:36:17.924Z,72.51
2022-07-28T02:38:50.163Z,72.53
2022-07-28T02:41:26.611Z,72.05
2022-07-28T02:44:07.809Z,71.94
2022-07-28T02:46:43.288Z,72.91
2022-07-28T02:49:22.043Z,72.90
2022-07-28T02:51:52.818Z,72.98
2022-07-28T02:54:22.424Z,72.39
2022-07-28T02:56:53.211Z,72.06
2022-07-28T02:59:24.094Z,72.45
2022-07-28T03:01:53.180Z,72.63
2022-07-28T03:04:41.584Z,72.77
2022-07-28T03:07:11.247Z,72.31
2022-07-28T03:09:45.874Z,72.35
2022-07-28T03:12:15.633Z,72.11
2022-07-28T03:14:44.321Z,72.46
2022-07-28T03:17:13.716Z,72.45
2022-07-28T03:19:42.578Z,72.45
2022-07-28T03:22:11.973Z,72.21
2022-07-28T03:24:50.003Z,71.95
2022-07-28T03:27:27.023Z,71.84
2022-07-28T03:30:08.197Z,72.42
2022-07-28T03:32:44.516Z,72.46
2022-07-28T03:35:13.801Z,72.01
2022-07-28T03:37:54.302Z,72.32
2022-07-28T03:40:27.005Z,72.21
2022-07-28T03:42:57.148Z,72.13
2022-07-28T03:45:26.490Z,71.91
2022-07-28T03:47:59.775Z,71.69
2022-07-28T03:50:31.186Z,71.36
2022-07-28T03:53:03.356Z,71.16
2022-07-28T03:55:31.914Z,71.66
2022-07-28T03:58:01.719Z,71.51
2022-07-28T04:00:30.465Z,71.32
2022-07-28T04:02:59.130Z,71.08
2022-07-28T04:05:28.033Z,71.01
2022-07-28T04:07:56.872Z,70.80
2022-07-28T04:10:25.687Z,70.52
2022-07-28T04:12:57.413Z,70.22
2022-07-28T04:15:28.627Z,69.79
2022-07-28T04:17:57.453Z,69.63
2022-07-28T04:20:28.281Z,69.57
2022-07-28T04:22:57.179Z,69.30
2022-07-28T04:25:28.226Z,68.91
2022-07-28T04:27:56.728Z,68.78
2022-07-28T04:30:25.966Z,68.63
2022-07-28T04:32:56.593Z,68.53
2022-07-28T04:35:26.318Z,68.11
2022-07-28T04:37:58.539Z,67.88
2022-07-28T04:40:28.715Z,67.52
2022-07-28T04:42:57.504Z,67.34
2022-07-28T04:45:26.405Z,67.63
2022-07-28T04:47:55.152Z,67.51
2022-07-28T04:50:24.228Z,67.24
2022-07-28T04:53:00.212Z,67.27
2022-07-28T04:55:29.154Z,66.79
2022-07-28T04:57:57.968Z,66.94
2022-07-28T05:00:27.956Z,66.87
2022-07-28T05:02:58.828Z,66.77
2022-07-28T05:05:27.499Z,66.76
2022-07-28T05:07:56.239Z,66.63
2022-07-28T05:10:24.928Z,66.26
2022-07-28T05:12:54.844Z,66.51
2022-07-28T05:15:23.835Z,66.59
2022-07-28T05:17:52.572Z,66.60
2022-07-28T05:20:21.359Z,66.12
2022-07-28T05:22:57.649Z,65.99
2022-07-28T05:25:26.740Z,65.82
2022-07-28T05:27:56.076Z,65.62
2022-07-28T05:30:25.420Z,65.76
2022-07-28T05:32:54.214Z,65.69
2022-07-28T05:35:22.818Z,65.66
2022-07-28T05:37:51.453Z,65.46
2022-07-28T05:40:20.079Z,65.08
2022-07-28T05:42:48.869Z,64.91
2022-07-28T05:45:17.960Z,64.97
2022-07-28T05:47:52.914Z,64.83
2022-07-28T05:50:24.337Z,64.61
2022-07-28T05:52:53.334Z,64.37
2022-07-28T05:55:22.812Z,64.31
2022-07-28T05:57:51.710Z,64.25
2022-07-28T06:00:23.805Z,64.54
2022-07-28T06:02:53.029Z,64.53
2022-07-28T06:05:23.762Z,64.22
2022-07-28T06:07:52.605Z,64.15
2022-07-28T06:10:24.274Z,63.87
2022-07-28T06:12:55.610Z,63.29
2022-07-28T06:15:28.159Z,63.14
2022-07-28T06:17:56.963Z,63.19
2022-07-28T06:20:27.949Z,63.38
2022-07-28T06:22:57.354Z,63.26
2022-07-28T06:25:31.590Z,62.88
2022-07-28T06:28:04.860Z,62.49
2022-07-28T06:30:33.528Z,62.25
2022-07-28T06:33:02.226Z,62.09
2022-07-28T06:35:30.961Z,61.94
2022-07-28T06:38:15.543Z,62.11
2022-07-28T06:40:45.968Z,61.73
2022-07-28T06:43:14.881Z,61.70
2022-07-28T06:45:45.309Z,61.30
2022-07-28T06:48:13.973Z,61.00
2022-07-28T06:50:43.361Z,60.87
2022-07-28T06:53:12.114Z,61.09
2022-07-28T06:55:41.353Z,60.80
2022-07-28T06:58:10.247Z,60.27
2022-07-28T07:00:39.150Z,60.02
2022-07-28T07:03:09.840Z,59.82
2022-07-28T07:05:38.806Z,59.96
2022-07-28T07:08:07.865Z,60.21
2022-07-28T07:10:36.650Z,59.71
2022-07-28T07:13:05.465Z,59.65
2022-07-28T07:15:34.826Z,58.97
2022-07-28T07:18:04.043Z,59.10
2022-07-28T07:20:32.894Z,58.50
2022-07-28T07:23:01.549Z,58.40
2022-07-28T07:25:30.431Z,58.38
2022-07-28T07:27:59.039Z,58.41
2022-07-28T07:30:27.882Z,58.43
2022-07-28T07:32:56.678Z,58.13
2022-07-28T07:35:25.472Z,58.06
2022-07-28T07:37:54.097Z,57.84
2022-07-28T07:40:22.846Z,57.63
2022-07-28T07:42:51.568Z,57.33
2022-07-28T07:45:20.512Z,57.33
2022-07-28T07:47:49.140Z,57.26
2022-07-28T07:50:17.828Z,56.87
2022-07-28T07:52:46.642Z,56.50
2022-07-28T07:55:15.734Z,56.49
2022-07-28T07:57:45.143Z,55.90
2022-07-28T08:00:28.558Z,56.04
2022-07-28T08:02:59.456Z,55.17
2022-07-28T08:05:35.753Z,54.75
2022-07-28T08:08:05.856Z,54.59
2022-07-28T08:10:36.591Z,54.57
2022-07-28T08:13:07.154Z,54.87
2022-07-28T08:15:36.114Z,54.57
2022-07-28T08:18:05.312Z,53.65
2022-07-28T08:20:34.100Z,53.66
2022-07-28T08:23:02.867Z,53.81
2022-07-28T08:25:31.923Z,53.63
2022-07-28T08:28:00.600Z,52.95
2022-07-28T08:30:32.621Z,51.97
2022-07-28T08:33:03.168Z,52.26
2022-07-28T08:35:34.359Z,52.27
2022-07-28T08:38:07.174Z,52.14
2022-07-28T08:40:36.784Z,52.37
2022-07-28T08:43:28.533Z,52.40
2022-07-28T08:45:58.750Z,50.93
2022-07-28T08:48:33.317Z,50.79
2022-07-28T08:51:12.095Z,51.01
2022-07-28T08:53:41.871Z,50.05
2022-07-28T08:56:15.754Z,49.91
2022-07-28T08:58:44.566Z,48.91
2022-07-28T09:01:13.485Z,49.41
2022-07-28T09:03:42.529Z,48.89
2022-07-28T09:06:11.724Z,49.42
2022-07-28T09:08:40.745Z,49.35
2022-07-28T09:11:12.662Z,47.83
2022-07-28T09:13:42.558Z,46.99
2022-07-28T09:16:15.529Z,46.48
2022-07-28T09:18:44.713Z,47.24
2022-07-28T09:21:16.575Z,47.24
2022-07-28T09:23:48.841Z,46.32
2022-07-28T09:26:18.634Z,46.23
2022-07-28T09:28:59.274Z,45.79
2022-07-28T09:31:30.717Z,45.92
2022-07-28T09:34:06.468Z,46.02
2022-07-28T09:36:40.859Z,46.10
2022-07-28T09:39:09.891Z,45.77
2022-07-28T09:41:57.294Z,45.42
2022-07-28T09:44:30.015Z,45.69
2022-07-28T09:46:58.971Z,45.77
2022-07-28T09:49:43.489Z,45.21
2022-07-28T09:52:13.571Z,44.80
2022-07-28T09:55:12.168Z,44.28
2022-07-28T09:57:43.837Z,44.38
2022-07-28T10:00:32.850Z,44.70
2022-07-28T10:03:01.912Z,43.61
2022-07-28T10:05:43.250Z,44.19
2022-07-28T10:08:12.375Z,43.46
2022-07-28T10:10:42.345Z,43.59
2022-07-28T10:13:11.415Z,42.92
2022-07-28T10:15:58.885Z,41.93
2022-07-28T10:18:27.547Z,41.61
2022-07-28T10:20:57.457Z,42.21
2022-07-28T10:23:26.158Z,42.72
2022-07-28T10:25:56.323Z,42.09
2022-07-28T10:28:25.721Z,40.90
2022-07-28T10:30:58.853Z,40.10
2022-07-28T10:33:34.767Z,39.76
2022-07-28T10:36:03.772Z,39.55
2022-07-28T10:38:37.176Z,39.27
2022-07-28T10:41:09.815Z,38.94
2022-07-28T10:43:42.839Z,38.62
2022-07-28T10:46:16.311Z,39.52
2022-07-28T10:48:45.771Z,38.53
2022-07-28T10:51:14.799Z,38.41
2022-07-28T10:53:56.731Z,38.64
2022-07-28T10:56:57.113Z,38.65
2022-07-28T11:00:13.237Z,37.65
2022-07-28T11:02:50.970Z,37.43
2022-07-28T11:05:39.954Z,37.09
2022-07-28T11:08:16.512Z,38.02
2022-07-28T11:10:53.467Z,36.83
2022-07-28T11:13:37.152Z,36.27
2022-07-28T11:16:16.311Z,36.20
2022-07-28T11:19:36.917Z,36.04
2022-07-28T11:22:15.543Z,35.68
2022-07-28T11:25:19.756Z,36.17
2022-07-28T11:27:51.143Z,35.56
2022-07-28T11:30:27.813Z,36.43
2022-07-28T11:32:58.014Z,36.25
2022-07-28T11:35:54.635Z,35.74
2022-07-28T11:38:24.935Z,34.92
2022-07-28T11:40:56.602Z,34.58
2022-07-28T11:43:36.662Z,35.69
2022-07-28T11:46:11.398Z,35.29
2022-07-28T11:48:44.836Z,34.76
2022-07-28T11:51:14.596Z,35.05
2022-07-28T11:53:44.153Z,35.34
2022-07-28T11:56:15.357Z,35.76
2022-07-28T11:58:44.384Z,35.76
2022-07-28T12:01:21.212Z,36.08
2022-07-28T12:03:55.667Z,34.84
2022-07-28T12:06:34.092Z,34.14
2022-07-28T12:09:09.597Z,34.86
2022-07-28T12:11:41.549Z,35.30
2022-07-28T12:14:16.451Z,34.78
2022-07-28T12:16:50.689Z,35.26
2022-07-28T12:19:20.442Z,34.92
2022-07-28T12:21:53.403Z,33.66
2022-07-28T12:24:45.093Z,33.03
2022-07-28T12:27:16.522Z,33.91
2022-07-28T12:30:02.390Z,33.67
2022-07-28T12:32:35.932Z,34.27
2022-07-28T12:35:05.198Z,34.24
2022-07-28T12:37:34.083Z,33.39
2022-07-28T12:40:03.207Z,33.20
2022-07-28T12:42:32.659Z,33.84
2022-07-28T12:45:07.865Z,33.53
2022-07-28T12:47:37.671Z,33.45
2022-07-28T12:50:10.364Z,33.52
2022-07-28T12:52:39.864Z,33.61
2022-07-28T12:55:31.027Z,32.87
2022-07-28T12:58:00.764Z,32.64
2022-07-28T13:00:34.195Z,32.86
2022-07-28T13:03:29.868Z,33.16
2022-07-28T13:06:10.644Z,33.05
2022-07-28T13:08:45.118Z,33.14
2022-07-28T13:14:05.277Z,32.04
2022-07-28T13:16:34.733Z,32.14
2022-07-28T13:19:04.672Z,32.02
2022-07-28T13:21:58.596Z,30.87
2022-07-28T13:24:31.112Z,31.43
2022-07-28T13:27:01.957Z,31.89
2022-07-28T13:29:35.568Z,32.52
2022-07-28T13:32:04.576Z,32.31
2022-07-28T13:34:33.845Z,32.73
2022-07-28T13:37:02.713Z,32.76
2022-07-28T13:39:34.245Z,32.42
2022-07-28T13:42:06.058Z,32.67
2022-07-28T13:44:36.746Z,32.59
2022-07-28T13:47:06.140Z,32.44
2022-07-28T13:49:37.633Z,31.85
2022-07-28T13:52:13.144Z,31.53
2022-07-28T13:54:43.734Z,31.54
2022-07-28T13:57:16.288Z,31.54
2022-07-28T13:59:47.964Z,31.21
2022-07-28T14:02:17.162Z,31.40
2022-07-28T14:04:50.164Z,30.70
2022-07-28T14:07:22.732Z,30.33
2022-07-28T14:09:51.813Z,30.40
2022-07-28T14:12:21.468Z,30.09
2022-07-28T14:14:50.324Z,30.03
2022-07-28T14:17:43.432Z,30.18
2022-07-28T14:20:14.511Z,30.40
2022-07-28T14:22:46.574Z,30.82
2022-07-28T14:25:20.802Z,30.98
2022-07-28T14:27:52.610Z,31.15
2022-07-28T14:30:23.082Z,31.21
2022-07-28T14:32:52.561Z,31.40
2022-07-28T14:35:22.046Z,31.71
2022-07-28T14:40:41.905Z,30.70
2022-07-28T14:43:10.831Z,31.18
2022-07-28T14:46:00.481Z,30.84
2022-07-28T14:48:31.101Z,30.96
2022-07-28T14:51:01.641Z,31.51
2022-07-28T14:53:30.121Z,32.03
2022-07-28T14:55:58.760Z,31.65
2022-07-28T14:58:27.593Z,31.78
2022-07-28T15:00:56.504Z,31.61
2022-07-28T15:03:35.717Z,31.69
2022-07-28T15:06:05.394Z,32.18
2022-07-28T15:08:34.128Z,32.26
2022-07-28T15:11:03.091Z,32.30
2022-07-28T15:13:32.038Z,32.21
2022-07-28T15:16:00.841Z,32.09
2022-07-28T15:18:29.863Z,32.14
2022-07-28T15:20:58.704Z,32.37
2022-07-28T15:23:27.525Z,32.73
2022-07-28T15:25:56.339Z,32.71
2022-07-28T15:28:25.040Z,32.92
2022-07-28T15:30:54.734Z,32.70
2022-07-28T15:33:25.740Z,33.21
2022-07-28T15:35:58.633Z,33.32
2022-07-28T15:38:29.522Z,33.33
2022-07-28T15:41:00.740Z,33.46
2022-07-28T15:43:30.165Z,33.57
2022-07-28T15:46:04.162Z,33.52
2022-07-28T15:48:32.876Z,33.78
2022-07-28T15:51:02.248Z,34.08
2022-07-28T15:53:31.194Z,34.37
2022-07-28T15:55:59.992Z,34.22
2022-07-28T15:58:28.757Z,34.37
2022-07-28T16:00:57.420Z,34.46
2022-07-28T16:03:30.972Z,34.43
2022-07-28T16:05:59.773Z,34.40
2022-07-28T16:08:28.578Z,34.66
2022-07-28T16:10:57.508Z,34.51
2022-07-28T16:13:35.672Z,34.73
2022-07-28T16:16:16.025Z,34.97
2022-07-28T16:18:45.490Z,35.03
2022-07-28T16:21:14.292Z,34.76
2022-07-28T16:23:43.139Z,34.76
2022-07-28T16:26:11.771Z,34.75
2022-07-28T16:28:40.502Z,34.93
2022-07-28T16:31:09.586Z,34.99
2022-07-28T16:33:39.237Z,35.04
2022-07-28T16:36:08.182Z,34.90
2022-07-28T16:38:37.155Z,34.85
2022-07-28T16:41:05.999Z,34.81
2022-07-28T16:43:35.848Z,34.96
2022-07-28T16:46:04.806Z,34.98
2022-07-28T16:48:33.527Z,35.13
2022-07-28T16:51:03.073Z,35.31
2022-07-28T16:53:32.197Z,35.28
2022-07-28T16:56:01.001Z,35.37
2022-07-28T16:58:30.239Z,35.47
2022-07-28T17:00:59.114Z,35.49
2022-07-28T17:03:27.916Z,35.38
2022-07-28T17:05:56.730Z,35.76
2022-07-28T17:08:25.522Z,35.58
2022-07-28T17:10:54.278Z,35.52
2022-07-28T17:13:26.042Z,35.63
2022-07-28T17:15:56.107Z,35.84
2022-07-28T17:18:24.815Z,35.82
2022-07-28T17:20:53.601Z,36.08
2022-07-28T17:23:22.468Z,36.11
2022-07-28T17:26:35.246Z,36.13
2022-07-28T17:28:41.392Z,36.31
2022-07-28T17:31:10.373Z,36.87
2022-07-28T17:33:39.109Z,36.87
2022-07-28T17:36:08.015Z,36.72
2022-07-28T17:38:37.200Z,36.69
2022-07-28T17:41:07.797Z,36.91
2022-07-28T17:43:41.031Z,36.94
2022-07-28T17:46:12.745Z,37.35
2022-07-28T17:48:41.759Z,37.37
2022-07-28T17:51:10.510Z,37.73
2022-07-28T17:53:39.809Z,38.00
2022-07-28T17:56:12.060Z,37.78
2022-07-28T17:58:40.936Z,37.84
2022-07-28T18:01:12.303Z,38.26
2022-07-28T18:03:57.969Z,38.13
2022-07-28T18:06:35.106Z,38.66
2022-07-28T18:09:08.372Z,39.30
2022-07-28T18:11:57.406Z,39.36
2022-07-28T18:14:31.664Z,39.26
2022-07-28T18:17:00.545Z,39.29
2022-07-28T18:19:30.154Z,39.41
2022-07-28T18:21:59.001Z,39.47
2022-07-28T18:24:27.863Z,39.41
2022-07-28T18:26:58.372Z,39.40
2022-07-28T18:29:38.366Z,39.69
2022-07-28T18:32:12.392Z,39.63
2022-07-28T18:34:41.984Z,39.68
2022-07-28T18:37:10.789Z,40.00
2022-07-28T18:39:40.425Z,40.19
2022-07-28T18:42:09.412Z,40.66
2022-07-28T18:44:38.806Z,40.41
2022-07-28T18:47:10.734Z,40.82
2022-07-28T18:49:39.650Z,40.59
2022-07-28T18:52:08.583Z,41.10
2022-07-28T18:54:37.487Z,40.99
2022-07-28T18:57:06.520Z,41.35
2022-07-28T18:59:37.835Z,41.61
2022-07-28T19:02:14.989Z,42.14
2022-07-28T19:04:45.050Z,41.97
2022-07-28T19:07:16.344Z,41.48
2022-07-28T19:09:45.070Z,41.38
2022-07-28T19:12:15.437Z,42.40
2022-07-28T19:14:48.131Z,43.39
2022-07-28T19:17:17.327Z,43.18
2022-07-28T19:19:46.082Z,43.44
2022-07-28T19:22:14.896Z,43.55
2022-07-28T19:24:44.098Z,43.43
2022-07-28T19:27:12.836Z,43.17
2022-07-28T19:29:41.640Z,43.13
2022-07-28T19:32:10.445Z,43.48
2022-07-28T19:34:39.232Z,43.42
2022-07-28T19:37:08.092Z,43.19
2022-07-28T19:39:46.158Z,44.09
2022-07-28T19:42:15.313Z,44.64
2022-07-28T19:44:45.672Z,44.14
2022-07-28T19:47:14.568Z,44.46
2022-07-28T19:49:43.342Z,44.25
2022-07-28T19:52:13.344Z,44.65
2022-07-28T19:54:42.008Z,45.05
2022-07-28T19:57:12.331Z,44.95
2022-07-28T19:59:43.229Z,45.45
2022-07-28T20:02:12.360Z,45.48
2022-07-28T20:04:43.395Z,45.94
2022-07-28T20:07:11.993Z,45.72
2022-07-28T20:09:40.791Z,45.57
2022-07-28T20:12:09.636Z,46.03
2022-07-28T20:14:39.567Z,45.95
2022-07-28T20:17:08.669Z,45.86
2022-07-28T20:19:37.592Z,46.13
2022-07-28T20:22:08.134Z,47.09
2022-07-28T20:24:37.180Z,48.24
2022-07-28T20:27:06.880Z,48.03
2022-07-28T20:29:36.068Z,47.61
2022-07-28T20:32:07.031Z,48.49
2022-07-28T20:34:36.562Z,48.45
2022-07-28T20:37:27.798Z,47.29
2022-07-28T20:39:57.286Z,47.96
2022-07-28T20:42:26.520Z,48.19
2022-07-28T20:44:55.467Z,48.21
2022-07-28T20:47:26.404Z,47.75
2022-07-28T20:49:55.621Z,48.45
2022-07-28T20:52:24.643Z,48.93
2022-07-28T20:54:54.798Z,49.68
2022-07-28T20:57:26.651Z,49.45
2022-07-28T20:59:55.578Z,48.93
2022-07-28T21:02:24.788Z,49.26
2022-07-28T21:04:53.649Z,49.27
2022-07-28T21:07:59.440Z,48.40
2022-07-28T21:10:11.605Z,48.91
2022-07-28T21:12:40.558Z,50.01
2022-07-28T21:15:10.170Z,48.97
2022-07-28T21:17:39.010Z,48.95
2022-07-28T21:20:08.519Z,48.92
2022-07-28T21:22:37.359Z,48.85
2022-07-28T21:25:07.580Z,49.28
2022-07-28T21:27:55.162Z,49.21
2022-07-28T21:30:27.556Z,48.91
2022-07-28T21:32:57.529Z,49.48
2022-07-28T21:35:29.712Z,49.56
2022-07-28T21:37:58.651Z,49.34
2022-07-28T21:40:28.122Z,49.33
2022-07-28T21:42:56.992Z,49.56
2022-07-28T21:45:25.966Z,50.19
2022-07-28T21:47:54.816Z,50.33
2022-07-28T21:50:23.602Z,50.03
2022-07-28T21:52:52.339Z,50.13
2022-07-28T21:55:21.148Z,50.11
2022-07-28T21:57:49.951Z,50.01
2022-07-28T22:00:22.336Z,50.24
2022-07-28T22:02:51.277Z,49.79
2022-07-28T22:05:20.290Z,49.62
2022-07-28T22:07:49.434Z,50.34
2022-07-28T22:10:19.086Z,50.27
2022-07-28T22:12:47.800Z,50.01
2022-07-28T22:15:16.712Z,49.81
2022-07-28T22:17:45.666Z,49.82
2022-07-28T22:20:14.373Z,50.02
2022-07-28T22:22:43.182Z,49.92
2022-07-28T22:25:12.143Z,49.80
2022-07-28T22:27:41.061Z,49.84
2022-07-28T22:30:10.402Z,50.07
2022-07-28T22:32:39.085Z,49.96
2022-07-28T22:35:08.611Z,50.12
2022-07-28T22:37:37.441Z,50.08
2022-07-28T22:40:07.077Z,49.94
2022-07-28T22:42:35.784Z,50.22
2022-07-28T22:45:06.040Z,50.10
2022-07-28T22:47:34.906Z,50.63
2022-07-28T22:50:05.594Z,50.54
2022-07-28T22:52:34.373Z,50.85
2022-07-28T22:55:03.323Z,51.18
2022-07-28T22:57:32.145Z,51.06
2022-07-28T23:00:00.819Z,51.22
2022-07-28T23:02:30.678Z,50.90
2022-07-28T23:04:59.474Z,51.27
2022-07-28T23:07:50.686Z,52.04
2022-07-28T23:10:17.242Z,51.48
2022-07-28T23:12:45.912Z,52.34
2022-07-28T23:15:14.614Z,52.28
2022-07-28T23:17:43.273Z,51.58
2022-07-28T23:20:12.337Z,52.06
2022-07-28T23:22:41.018Z,52.15
2022-07-28T23:25:10.253Z,52.29
2022-07-28T23:27:38.957Z,52.26
2022-07-28T23:30:08.521Z,52.03
2022-07-28T23:32:37.257Z,51.82
2022-07-28T23:35:06.488Z,52.56
2022-07-28T23:37:35.204Z,52.26
2022-07-28T23:40:05.134Z,52.19
2022-07-28T23:42:33.831Z,51.93
2022-07-28T23:45:04.696Z,52.98
2022-07-28T23:47:34.668Z,53.41
2022-07-28T23:50:05.345Z,53.86
2022-07-28T23:52:34.205Z,53.63
2022-07-28T23:55:03.103Z,53.96
2022-07-28T23:57:32.071Z,53.86
